createdAt,value
2017-11-26T00:00:34.333Z,0
2017-11-26T00:01:36.209Z,0
2017-11-26T00:02:38.090Z,0
2017-11-26T00:03:39.963Z,0
2017-11-26T00:04:41.779Z,0
2017-11-26T00:05:43.594Z,0
2017-11-26T00:06:45.478Z,0
2017-11-26T00:07:47.361Z,0
2017-11-26T00:08:49.234Z,0
2017-11-26T00:10:03.382Z,0
2017-11-26T00:11:05.258Z,0
2017-11-26T00:12:07.136Z,0
2017-11-26T00:13:09.015Z,0
2017-11-26T00:14:10.831Z,0
2017-11-26T00:15:12.649Z,0
2017-11-26T00:16:14.540Z,0
2017-11-26T00:17:16.433Z,0
2017-11-26T00:18:18.284Z,0
2017-11-26T00:19:32.433Z,0
2017-11-26T00:20:34.308Z,0
2017-11-26T00:21:36.200Z,0
2017-11-26T00:22:38.077Z,0
2017-11-26T00:23:39.893Z,0
2017-11-26T00:24:41.709Z,0
2017-11-26T00:25:43.593Z,0
2017-11-26T00:26:45.472Z,0
2017-11-26T00:27:47.378Z,0
2017-11-26T00:29:01.500Z,0
2017-11-26T00:30:03.382Z,0
2017-11-26T00:31:05.256Z,0
2017-11-26T00:32:07.146Z,0
2017-11-26T00:33:08.964Z,0
2017-11-26T00:34:10.779Z,0
2017-11-26T00:35:12.657Z,0
2017-11-26T00:36:14.534Z,0
2017-11-26T00:37:16.410Z,0
2017-11-26T00:38:30.559Z,0
2017-11-26T00:39:32.433Z,0
2017-11-26T00:40:34.310Z,0
2017-11-26T00:41:36.185Z,0
2017-11-26T00:42:37.999Z,0
2017-11-26T00:43:39.821Z,0
2017-11-26T00:44:41.697Z,0
2017-11-26T00:45:43.573Z,0
2017-11-26T00:46:45.450Z,0
2017-11-26T00:47:59.597Z,0
2017-11-26T00:49:01.479Z,0
2017-11-26T00:50:03.352Z,0
2017-11-26T00:51:05.225Z,0
2017-11-26T00:52:07.039Z,0
2017-11-26T00:53:08.853Z,0
2017-11-26T00:54:10.729Z,0
2017-11-26T00:55:12.608Z,0
2017-11-26T00:56:14.483Z,0
2017-11-26T00:57:28.633Z,0
2017-11-26T00:58:30.514Z,0
2017-11-26T00:59:32.389Z,0
2017-11-26T01:00:34.265Z,0
2017-11-26T01:01:36.081Z,0
2017-11-26T01:02:37.898Z,0
2017-11-26T01:03:39.779Z,0
2017-11-26T01:04:41.657Z,0
2017-11-26T01:05:43.535Z,0
2017-11-26T01:06:57.682Z,0
2017-11-26T01:07:59.558Z,0
2017-11-26T01:09:01.439Z,0
2017-11-26T01:10:03.313Z,0
2017-11-26T01:11:05.133Z,0
2017-11-26T01:12:06.949Z,0
2017-11-26T01:13:08.826Z,0
2017-11-26T01:14:10.704Z,0
2017-11-26T01:15:12.580Z,0
2017-11-26T01:16:26.777Z,0
2017-11-26T01:17:28.654Z,0
2017-11-26T01:18:30.530Z,0
2017-11-26T01:19:32.406Z,0
2017-11-26T01:20:34.223Z,0
2017-11-26T01:21:36.034Z,0
2017-11-26T01:22:37.922Z,0
2017-11-26T01:23:39.800Z,0
2017-11-26T01:24:41.676Z,0
2017-11-26T01:25:55.848Z,0
2017-11-26T01:26:57.702Z,0
2017-11-26T01:27:59.586Z,0
2017-11-26T01:29:01.464Z,0
2017-11-26T01:30:03.279Z,0
2017-11-26T01:31:05.093Z,0
2017-11-26T01:32:06.979Z,0
2017-11-26T01:33:08.854Z,0
2017-11-26T01:34:10.731Z,0
2017-11-26T01:35:24.878Z,0
2017-11-26T01:36:26.754Z,0
2017-11-26T01:37:28.632Z,0
2017-11-26T01:38:30.511Z,0
2017-11-26T01:39:32.327Z,0
2017-11-26T01:40:34.140Z,0
2017-11-26T01:41:36.022Z,0
2017-11-26T01:42:37.900Z,0
2017-11-26T01:43:39.776Z,0
2017-11-26T01:44:53.971Z,0
2017-11-26T01:45:55.850Z,0
2017-11-26T01:46:57.728Z,0
2017-11-26T01:47:59.608Z,0
2017-11-26T01:49:01.423Z,0
2017-11-26T01:50:03.240Z,0
2017-11-26T01:51:05.118Z,0
2017-11-26T01:52:06.996Z,0
2017-11-26T01:53:08.875Z,0
2017-11-26T01:54:23.025Z,0
2017-11-26T01:55:24.902Z,0
2017-11-26T01:56:26.785Z,0
2017-11-26T01:57:28.662Z,0
2017-11-26T01:58:30.477Z,0
2017-11-26T01:59:32.291Z,0
2017-11-26T02:00:34.171Z,0
2017-11-26T02:01:36.051Z,0
2017-11-26T02:02:37.929Z,0
2017-11-26T02:03:52.077Z,0
2017-11-26T02:04:53.954Z,0
2017-11-26T02:05:55.834Z,0
2017-11-26T02:06:57.710Z,0
2017-11-26T02:07:59.524Z,0
2017-11-26T02:09:01.342Z,0
2017-11-26T02:10:03.219Z,0
2017-11-26T02:11:05.097Z,0
2017-11-26T02:12:06.976Z,0
2017-11-26T02:13:21.988Z,0
2017-11-26T02:14:23.881Z,0
2017-11-26T02:15:25.745Z,0
2017-11-26T02:16:27.623Z,0
2017-11-26T02:17:29.437Z,0
2017-11-26T02:18:31.252Z,0
2017-11-26T02:19:33.133Z,0
2017-11-26T02:20:35.002Z,0
2017-11-26T02:21:36.881Z,0
2017-11-26T02:22:51.078Z,0
2017-11-26T02:23:52.953Z,0
2017-11-26T02:24:54.832Z,0
2017-11-26T02:25:56.716Z,0
2017-11-26T02:26:58.528Z,0
2017-11-26T02:28:00.337Z,0
2017-11-26T02:29:02.216Z,0
2017-11-26T02:30:04.093Z,0
2017-11-26T02:31:05.970Z,0
2017-11-26T02:32:20.117Z,0
2017-11-26T02:33:21.993Z,0
2017-11-26T02:34:23.869Z,0
2017-11-26T02:35:25.751Z,0
2017-11-26T02:36:27.560Z,0
2017-11-26T02:37:29.372Z,0
2017-11-26T02:38:31.249Z,0
2017-11-26T02:39:33.126Z,0
2017-11-26T02:40:35.017Z,0
2017-11-26T02:41:49.155Z,0
2017-11-26T02:42:51.024Z,0
2017-11-26T02:43:52.906Z,0
2017-11-26T02:44:54.779Z,0
2017-11-26T02:45:56.593Z,0
2017-11-26T02:46:58.403Z,0
2017-11-26T02:48:00.281Z,0
2017-11-26T02:49:02.159Z,0
2017-11-26T02:50:04.034Z,0
2017-11-26T02:51:18.181Z,0
2017-11-26T02:52:20.057Z,0
2017-11-26T02:53:21.937Z,0
2017-11-26T02:54:23.812Z,0
2017-11-26T02:55:25.623Z,0
2017-11-26T02:56:27.437Z,0
2017-11-26T02:57:29.327Z,0
2017-11-26T02:58:31.190Z,0
2017-11-26T02:59:33.067Z,0
2017-11-26T03:00:47.215Z,0
2017-11-26T03:01:49.089Z,0
2017-11-26T03:02:50.965Z,0
2017-11-26T03:03:52.848Z,0
2017-11-26T03:04:54.660Z,0
2017-11-26T03:05:56.470Z,0
2017-11-26T03:06:58.348Z,0
2017-11-26T03:08:00.228Z,0
2017-11-26T03:09:02.104Z,0
2017-11-26T03:10:16.250Z,0
2017-11-26T03:11:18.125Z,0
2017-11-26T03:12:20.011Z,0
2017-11-26T03:13:21.884Z,0
2017-11-26T03:14:23.698Z,0
2017-11-26T03:15:25.510Z,0
2017-11-26T03:16:27.393Z,0
2017-11-26T03:17:29.272Z,0
2017-11-26T03:18:31.151Z,0
2017-11-26T03:19:45.298Z,0
2017-11-26T03:20:47.174Z,0
2017-11-26T03:21:49.056Z,0
2017-11-26T03:22:50.934Z,0
2017-11-26T03:23:52.747Z,0
2017-11-26T03:24:54.563Z,0
2017-11-26T03:25:56.453Z,0
2017-11-26T03:26:58.320Z,0
2017-11-26T03:28:00.200Z,0
2017-11-26T03:29:14.353Z,0
2017-11-26T03:30:16.226Z,0
2017-11-26T03:31:18.103Z,0
2017-11-26T03:32:19.980Z,0
2017-11-26T03:33:21.797Z,0
2017-11-26T03:34:23.612Z,0
2017-11-26T03:35:25.489Z,0
2017-11-26T03:36:27.369Z,0
2017-11-26T03:37:29.247Z,0
2017-11-26T03:38:43.398Z,0
2017-11-26T03:39:45.282Z,0
2017-11-26T03:40:47.158Z,0
2017-11-26T03:41:49.039Z,0
2017-11-26T03:42:50.852Z,0
2017-11-26T03:43:52.661Z,0
2017-11-26T03:44:54.542Z,0
2017-11-26T03:45:56.420Z,0
2017-11-26T03:46:58.296Z,0
2017-11-26T03:48:12.444Z,0
2017-11-26T03:49:14.319Z,0
2017-11-26T03:50:16.200Z,0
2017-11-26T03:51:18.081Z,0
2017-11-26T03:52:19.893Z,0
2017-11-26T03:53:21.708Z,0
2017-11-26T03:54:23.588Z,0
2017-11-26T03:55:25.470Z,0
2017-11-26T03:56:27.365Z,0
2017-11-26T03:57:41.493Z,0
2017-11-26T03:58:43.371Z,0
2017-11-26T03:59:45.249Z,0
2017-11-26T04:00:47.132Z,0
2017-11-26T04:01:48.946Z,0
2017-11-26T04:02:50.758Z,0
2017-11-26T04:03:52.637Z,0
2017-11-26T04:04:54.516Z,0
2017-11-26T04:05:56.394Z,0
2017-11-26T04:07:10.545Z,0
2017-11-26T04:08:12.424Z,0
2017-11-26T04:09:14.301Z,0
2017-11-26T04:10:16.181Z,0
2017-11-26T04:11:17.993Z,0
2017-11-26T04:12:19.806Z,0
2017-11-26T04:13:21.686Z,0
2017-11-26T04:14:23.565Z,0
2017-11-26T04:15:25.444Z,0
2017-11-26T04:16:39.591Z,0
2017-11-26T04:17:41.467Z,0
2017-11-26T04:18:43.349Z,0
2017-11-26T04:19:45.221Z,0
2017-11-26T04:20:47.038Z,0
2017-11-26T04:21:48.850Z,0
2017-11-26T04:22:50.730Z,0
2017-11-26T04:23:52.606Z,0
2017-11-26T04:24:54.487Z,0
2017-11-26T04:26:08.683Z,0
2017-11-26T04:27:10.560Z,0
2017-11-26T04:28:12.438Z,0
2017-11-26T04:29:14.316Z,0
2017-11-26T04:30:16.133Z,0
2017-11-26T04:31:17.950Z,0
2017-11-26T04:32:19.828Z,0
2017-11-26T04:33:21.704Z,0
2017-11-26T04:34:23.582Z,0
2017-11-26T04:35:37.730Z,0
2017-11-26T04:36:39.612Z,0
2017-11-26T04:37:41.483Z,0
2017-11-26T04:38:43.362Z,0
2017-11-26T04:39:45.173Z,0
2017-11-26T04:40:46.988Z,0
2017-11-26T04:41:48.864Z,0
2017-11-26T04:42:50.739Z,0
2017-11-26T04:43:52.617Z,0
2017-11-26T04:45:06.764Z,0
2017-11-26T04:46:08.640Z,0
2017-11-26T04:47:10.519Z,0
2017-11-26T04:48:12.406Z,0
2017-11-26T04:49:14.213Z,0
2017-11-26T04:50:16.029Z,0
2017-11-26T04:51:17.904Z,0
2017-11-26T04:52:19.784Z,0
2017-11-26T04:53:21.661Z,0
2017-11-26T04:54:35.810Z,0
2017-11-26T04:55:37.684Z,0
2017-11-26T04:56:39.561Z,0
2017-11-26T04:57:41.447Z,0
2017-11-26T04:58:43.252Z,0
2017-11-26T04:59:45.063Z,0
2017-11-26T05:00:46.944Z,0
2017-11-26T05:01:48.820Z,0
2017-11-26T05:02:50.700Z,0
2017-11-26T05:04:04.895Z,0
2017-11-26T05:05:06.774Z,0
2017-11-26T05:06:08.656Z,0
2017-11-26T05:07:10.527Z,0
2017-11-26T05:08:12.342Z,0
2017-11-26T05:09:14.181Z,0
2017-11-26T05:10:16.036Z,0
2017-11-26T05:11:17.913Z,0
2017-11-26T05:12:20.401Z,0
2017-11-26T05:13:34.751Z,0
2017-11-26T05:14:36.629Z,0
2017-11-26T05:15:38.503Z,0
2017-11-26T05:16:40.381Z,0
2017-11-26T05:17:42.194Z,0
2017-11-26T05:18:44.007Z,0
2017-11-26T05:19:45.891Z,0
2017-11-26T05:20:47.761Z,0
2017-11-26T05:21:49.639Z,0
2017-11-26T05:23:03.786Z,0
2017-11-26T05:24:05.663Z,0
2017-11-26T05:25:07.540Z,0
2017-11-26T05:26:09.419Z,0
2017-11-26T05:27:11.236Z,0
2017-11-26T05:28:13.048Z,0
2017-11-26T05:29:14.931Z,0
2017-11-26T05:30:16.807Z,0
2017-11-26T05:31:18.687Z,0
2017-11-26T05:32:32.882Z,0
2017-11-26T05:33:34.758Z,0
2017-11-26T05:34:36.636Z,0
2017-11-26T05:35:38.515Z,0
2017-11-26T05:36:40.332Z,0
2017-11-26T05:37:42.142Z,0
2017-11-26T05:38:44.024Z,0
2017-11-26T05:39:45.904Z,0
2017-11-26T05:40:47.783Z,0
2017-11-26T05:42:01.986Z,0
2017-11-26T05:43:03.858Z,0
2017-11-26T05:44:05.736Z,0
2017-11-26T05:45:07.614Z,0
2017-11-26T05:46:09.429Z,0
2017-11-26T05:47:11.254Z,0
2017-11-26T05:48:13.070Z,0
2017-11-26T05:49:14.947Z,0
2017-11-26T05:50:16.826Z,0
2017-11-26T05:51:31.024Z,0
2017-11-26T05:52:32.901Z,0
2017-11-26T05:53:34.779Z,0
2017-11-26T05:54:36.657Z,0
2017-11-26T05:55:38.472Z,0
2017-11-26T05:56:40.284Z,0
2017-11-26T05:57:42.161Z,0
2017-11-26T05:58:44.040Z,0
2017-11-26T05:59:45.918Z,0
2017-11-26T06:01:00.112Z,0
2017-11-26T06:02:01.989Z,0
2017-11-26T06:03:03.865Z,0
2017-11-26T06:04:05.744Z,4
2017-11-26T06:05:07.556Z,4
2017-11-26T06:06:09.372Z,0
2017-11-26T06:07:11.251Z,4
2017-11-26T06:08:13.127Z,8
2017-11-26T06:09:15.009Z,8
2017-11-26T06:10:29.159Z,8
2017-11-26T06:11:31.035Z,12
2017-11-26T06:12:32.914Z,12
2017-11-26T06:13:34.793Z,12
2017-11-26T06:14:36.611Z,12
2017-11-26T06:15:38.422Z,16
2017-11-26T06:16:40.307Z,12
2017-11-26T06:17:42.185Z,16
2017-11-26T06:18:44.059Z,20
2017-11-26T06:19:58.209Z,28
2017-11-26T06:21:00.085Z,36
2017-11-26T06:22:01.964Z,40
2017-11-26T06:23:03.846Z,52
2017-11-26T06:24:05.659Z,60
2017-11-26T06:25:07.476Z,72
2017-11-26T06:26:09.353Z,80
2017-11-26T06:27:11.232Z,96
2017-11-26T06:28:13.113Z,112
2017-11-26T06:29:27.263Z,136
2017-11-26T06:30:29.145Z,148
2017-11-26T06:31:31.021Z,164
2017-11-26T06:32:32.903Z,180
2017-11-26T06:33:34.718Z,196
2017-11-26T06:34:36.534Z,216
2017-11-26T06:35:38.414Z,232
2017-11-26T06:36:40.293Z,256
2017-11-26T06:37:42.176Z,276
2017-11-26T06:38:56.328Z,304
2017-11-26T06:39:58.205Z,328
2017-11-26T06:41:00.088Z,344
2017-11-26T06:42:01.973Z,368
2017-11-26T06:43:03.788Z,388
2017-11-26T06:44:05.602Z,408
2017-11-26T06:45:07.484Z,436
2017-11-26T06:46:09.367Z,456
2017-11-26T06:47:11.246Z,484
2017-11-26T06:48:25.396Z,516
2017-11-26T06:49:27.282Z,548
2017-11-26T06:50:29.156Z,576
2017-11-26T06:51:31.037Z,608
2017-11-26T06:52:32.850Z,636
2017-11-26T06:53:34.668Z,676
2017-11-26T06:54:36.546Z,712
2017-11-26T06:55:38.426Z,748
2017-11-26T06:56:40.309Z,788
2017-11-26T06:57:54.460Z,832
2017-11-26T06:58:56.341Z,876
2017-11-26T06:59:58.219Z,924
2017-11-26T07:01:00.102Z,972
2017-11-26T07:02:01.920Z,1020
2017-11-26T07:03:03.735Z,1072
2017-11-26T07:04:05.619Z,1132
2017-11-26T07:05:07.499Z,1180
2017-11-26T07:06:09.379Z,1216
2017-11-26T07:07:23.532Z,1260
2017-11-26T07:08:25.412Z,1296
2017-11-26T07:09:27.292Z,1328
2017-11-26T07:10:29.180Z,1388
2017-11-26T07:11:30.997Z,1496
2017-11-26T07:12:32.814Z,1492
2017-11-26T07:13:34.696Z,1468
2017-11-26T07:14:36.578Z,1484
2017-11-26T07:15:38.458Z,1536
2017-11-26T07:16:52.612Z,1584
2017-11-26T07:17:54.488Z,1596
2017-11-26T07:18:56.370Z,1620
2017-11-26T07:19:58.260Z,1648
2017-11-26T07:21:00.073Z,1688
2017-11-26T07:22:01.891Z,1724
2017-11-26T07:23:03.773Z,1760
2017-11-26T07:24:05.656Z,1788
2017-11-26T07:25:07.538Z,1816
2017-11-26T07:26:21.693Z,1868
2017-11-26T07:27:23.571Z,1904
2017-11-26T07:28:25.453Z,1956
2017-11-26T07:29:27.336Z,2024
2017-11-26T07:30:29.154Z,2136
2017-11-26T07:31:30.972Z,2184
2017-11-26T07:32:32.852Z,2180
2017-11-26T07:33:34.739Z,2176
2017-11-26T07:34:36.621Z,2160
2017-11-26T07:35:50.774Z,2132
2017-11-26T07:36:52.655Z,2108
2017-11-26T07:37:54.537Z,2104
2017-11-26T07:38:56.423Z,2108
2017-11-26T07:39:58.241Z,2116
2017-11-26T07:41:00.057Z,2132
2017-11-26T07:42:01.944Z,2160
2017-11-26T07:43:03.826Z,2196
2017-11-26T07:44:05.710Z,2228
2017-11-26T07:45:19.860Z,2260
2017-11-26T07:46:21.739Z,2280
2017-11-26T07:47:23.621Z,2300
2017-11-26T07:48:25.504Z,2312
2017-11-26T07:49:27.322Z,2336
2017-11-26T07:50:29.141Z,2356
2017-11-26T07:51:31.040Z,2376
2017-11-26T07:52:32.924Z,2388
2017-11-26T07:53:34.808Z,2408
2017-11-26T07:54:48.961Z,2428
2017-11-26T07:55:50.844Z,2448
2017-11-26T07:56:52.720Z,2484
2017-11-26T07:57:54.607Z,2480
2017-11-26T07:58:56.427Z,2496
2017-11-26T07:59:58.259Z,2524
2017-11-26T08:01:00.146Z,2544
2017-11-26T08:02:02.052Z,2560
2017-11-26T08:03:03.988Z,2580
2017-11-26T08:04:18.229Z,2588
2017-11-26T08:05:20.153Z,2600
2017-11-26T08:06:22.059Z,2620
2017-11-26T08:07:23.976Z,2640
2017-11-26T08:08:25.799Z,2636
2017-11-26T08:09:27.651Z,2648
2017-11-26T08:10:29.535Z,2652
2017-11-26T08:11:31.427Z,2664
2017-11-26T08:12:33.324Z,2668
2017-11-26T08:13:47.541Z,2672
2017-11-26T08:14:49.445Z,2696
2017-11-26T08:15:51.380Z,2712
2017-11-26T08:16:53.289Z,2712
2017-11-26T08:17:55.134Z,2728
2017-11-26T08:18:56.987Z,2712
2017-11-26T08:19:58.914Z,2744
2017-11-26T08:21:00.819Z,2760
2017-11-26T08:22:02.756Z,2776
2017-11-26T08:23:16.969Z,2788
2017-11-26T08:24:18.851Z,2792
2017-11-26T08:25:20.737Z,2804
2017-11-26T08:26:22.631Z,2820
2017-11-26T08:27:24.449Z,2832
2017-11-26T08:28:26.278Z,2840
2017-11-26T08:29:28.154Z,2848
2017-11-26T08:30:30.032Z,2852
2017-11-26T08:31:31.942Z,2864
2017-11-26T08:32:46.098Z,2868
2017-11-26T08:33:47.977Z,2880
2017-11-26T08:34:49.909Z,2832
2017-11-26T08:35:51.768Z,2840
2017-11-26T08:36:53.587Z,2856
2017-11-26T08:37:55.405Z,2860
2017-11-26T08:38:57.288Z,2860
2017-11-26T08:39:59.172Z,2860
2017-11-26T08:41:01.052Z,2872
2017-11-26T08:42:15.215Z,2880
2017-11-26T08:43:17.434Z,2888
2017-11-26T08:44:19.323Z,2892
2017-11-26T08:45:21.206Z,2900
2017-11-26T08:46:23.029Z,2908
2017-11-26T08:47:24.845Z,2916
2017-11-26T08:48:26.727Z,2928
2017-11-26T08:49:28.611Z,2936
2017-11-26T08:50:30.491Z,2948
2017-11-26T08:51:44.650Z,2956
2017-11-26T08:52:46.526Z,2964
2017-11-26T08:53:48.406Z,2972
2017-11-26T08:54:50.300Z,2976
2017-11-26T08:55:52.128Z,2984
2017-11-26T08:56:53.941Z,3040
2017-11-26T08:57:55.852Z,3048
2017-11-26T08:58:57.729Z,3056
2017-11-26T08:59:59.659Z,3068
2017-11-26T09:01:13.830Z,3076
2017-11-26T09:02:15.725Z,3096
2017-11-26T09:03:17.607Z,3124
2017-11-26T09:04:19.491Z,3152
2017-11-26T09:05:21.310Z,3188
2017-11-26T09:06:23.128Z,3224
2017-11-26T09:07:25.017Z,3264
2017-11-26T09:08:26.895Z,3320
2017-11-26T09:09:28.782Z,3404
2017-11-26T09:10:43.094Z,3532
2017-11-26T09:11:44.984Z,3608
2017-11-26T09:12:46.872Z,3668
2017-11-26T09:13:48.770Z,3720
2017-11-26T09:14:50.578Z,3848
2017-11-26T09:15:52.412Z,4040
2017-11-26T09:16:54.231Z,4212
2017-11-26T09:17:56.113Z,4220
2017-11-26T09:18:57.995Z,4196
2017-11-26T09:20:12.148Z,4228
2017-11-26T09:21:14.032Z,4388
2017-11-26T09:22:15.908Z,4548
2017-11-26T09:23:17.793Z,4492
2017-11-26T09:24:19.614Z,4560
2017-11-26T09:25:21.433Z,4760
2017-11-26T09:26:23.314Z,5092
2017-11-26T09:27:25.207Z,5356
2017-11-26T09:28:27.093Z,5408
2017-11-26T09:29:41.306Z,5140
2017-11-26T09:30:43.183Z,4916
2017-11-26T09:31:45.063Z,4804
2017-11-26T09:32:46.946Z,4796
2017-11-26T09:33:48.796Z,4824
2017-11-26T09:34:50.615Z,4772
2017-11-26T09:35:52.499Z,4732
2017-11-26T09:36:54.730Z,4748
2017-11-26T09:37:56.637Z,4732
2017-11-26T09:39:10.937Z,4656
2017-11-26T09:40:12.815Z,4656
2017-11-26T09:41:14.699Z,4752
2017-11-26T09:42:16.577Z,4964
2017-11-26T09:43:18.402Z,5112
2017-11-26T09:44:20.230Z,4976
2017-11-26T09:45:22.114Z,4728
2017-11-26T09:46:24.011Z,4696
2017-11-26T09:47:25.881Z,4720
2017-11-26T09:48:40.034Z,4716
2017-11-26T09:49:41.923Z,4776
2017-11-26T09:50:43.805Z,4828
2017-11-26T09:51:45.702Z,4796
2017-11-26T09:52:47.522Z,4732
2017-11-26T09:53:49.350Z,4740
2017-11-26T09:54:51.234Z,4804
2017-11-26T09:55:53.113Z,4916
2017-11-26T09:56:55.001Z,5064
2017-11-26T09:58:09.194Z,5284
2017-11-26T09:59:11.088Z,5292
2017-11-26T10:00:13.293Z,5176
2017-11-26T10:01:15.193Z,5132
2017-11-26T10:02:17.093Z,5204
2017-11-26T10:03:18.892Z,5064
2017-11-26T10:04:20.899Z,4940
2017-11-26T10:05:23.116Z,5548
2017-11-26T10:06:25.031Z,5840
2017-11-26T10:07:39.606Z,5500
2017-11-26T10:08:41.520Z,5284
2017-11-26T10:09:43.397Z,5188
2017-11-26T10:10:45.317Z,5332
2017-11-26T10:11:47.664Z,5356
2017-11-26T10:12:49.610Z,5104
2017-11-26T10:13:51.497Z,4812
2017-11-26T10:14:53.415Z,4724
2017-11-26T10:15:55.421Z,4628
2017-11-26T10:17:09.694Z,4464
2017-11-26T10:18:11.583Z,4304
2017-11-26T10:19:13.458Z,4308
2017-11-26T10:20:15.342Z,4332
2017-11-26T10:21:17.167Z,3652
2017-11-26T10:22:18.987Z,2952
2017-11-26T10:23:20.914Z,2808
2017-11-26T10:24:22.817Z,3044
2017-11-26T10:25:24.748Z,3372
2017-11-26T10:26:38.894Z,3076
2017-11-26T10:27:40.776Z,3096
2017-11-26T10:28:42.666Z,3052
2017-11-26T10:29:44.617Z,3016
2017-11-26T10:30:46.472Z,3068
2017-11-26T10:31:48.294Z,2968
2017-11-26T10:32:50.204Z,3080
2017-11-26T10:33:52.511Z,3268
2017-11-26T10:34:54.527Z,3420
2017-11-26T10:36:08.718Z,3536
2017-11-26T10:37:10.603Z,3632
2017-11-26T10:38:12.489Z,3572
2017-11-26T10:39:14.373Z,3480
2017-11-26T10:40:16.195Z,3304
2017-11-26T10:41:18.018Z,3260
2017-11-26T10:42:19.900Z,3300
2017-11-26T10:43:21.790Z,3428
2017-11-26T10:44:23.685Z,3488
2017-11-26T10:45:37.829Z,3800
2017-11-26T10:46:39.719Z,4120
2017-11-26T10:47:41.611Z,4356
2017-11-26T10:48:43.478Z,4464
2017-11-26T10:49:45.297Z,4620
2017-11-26T10:50:47.118Z,4864
2017-11-26T10:51:49.048Z,5080
2017-11-26T10:52:50.976Z,5104
2017-11-26T10:53:52.862Z,4960
2017-11-26T10:55:07.035Z,4752
2017-11-26T10:56:08.919Z,4788
2017-11-26T10:57:10.803Z,5016
2017-11-26T10:58:12.687Z,5348
2017-11-26T10:59:14.513Z,5580
2017-11-26T11:00:16.338Z,5692
2017-11-26T11:01:18.222Z,5800
2017-11-26T11:02:20.129Z,5760
2017-11-26T11:03:22.005Z,5600
2017-11-26T11:04:36.159Z,5736
2017-11-26T11:05:38.049Z,5932
2017-11-26T11:06:39.934Z,6240
2017-11-26T11:07:41.819Z,6560
2017-11-26T11:08:43.643Z,6752
2017-11-26T11:09:45.464Z,6652
2017-11-26T11:10:47.354Z,6696
2017-11-26T11:11:49.242Z,6280
2017-11-26T11:12:51.095Z,5844
2017-11-26T11:14:05.297Z,5648
2017-11-26T11:15:07.185Z,5424
2017-11-26T11:16:09.073Z,5356
2017-11-26T11:17:10.966Z,5484
2017-11-26T11:18:12.792Z,5660
2017-11-26T11:19:14.611Z,5936
2017-11-26T11:20:16.494Z,6240
2017-11-26T11:21:18.385Z,6292
2017-11-26T11:22:20.276Z,5912
2017-11-26T11:23:34.429Z,5472
2017-11-26T11:24:36.316Z,5124
2017-11-26T11:25:38.228Z,5084
2017-11-26T11:26:40.091Z,5160
2017-11-26T11:27:41.916Z,5308
2017-11-26T11:28:43.745Z,5436
2017-11-26T11:29:45.628Z,5320
2017-11-26T11:30:47.514Z,5108
2017-11-26T11:31:49.413Z,5020
2017-11-26T11:33:03.610Z,5052
2017-11-26T11:34:05.494Z,5180
2017-11-26T11:35:07.378Z,5268
2017-11-26T11:36:09.290Z,5188
2017-11-26T11:37:11.116Z,5088
2017-11-26T11:38:12.940Z,5152
2017-11-26T11:39:14.829Z,5152
2017-11-26T11:40:16.720Z,5056
2017-11-26T11:41:18.604Z,4960
2017-11-26T11:42:33.104Z,4624
2017-11-26T11:43:34.974Z,4204
2017-11-26T11:44:36.867Z,3736
2017-11-26T11:45:38.752Z,3308
2017-11-26T11:46:40.571Z,3044
2017-11-26T11:47:42.406Z,2900
2017-11-26T11:48:44.604Z,2868
2017-11-26T11:49:46.500Z,2900
2017-11-26T11:50:48.729Z,2972
2017-11-26T11:52:03.243Z,2820
2017-11-26T11:53:05.425Z,2452
2017-11-26T11:54:07.328Z,2044
2017-11-26T11:55:09.535Z,1716
2017-11-26T11:56:11.662Z,1472
2017-11-26T11:57:13.514Z,1236
2017-11-26T11:58:15.812Z,1072
2017-11-26T11:59:17.736Z,992
2017-11-26T12:00:19.644Z,1016
2017-11-26T12:01:33.798Z,1116
2017-11-26T12:02:35.712Z,1152
2017-11-26T12:03:37.602Z,1268
2017-11-26T12:04:39.510Z,1584
2017-11-26T12:05:41.651Z,1844
2017-11-26T12:06:43.480Z,2012
2017-11-26T12:07:45.386Z,1952
2017-11-26T12:08:47.279Z,1832
2017-11-26T12:09:49.169Z,1988
2017-11-26T12:11:03.343Z,2052
2017-11-26T12:12:05.242Z,1740
2017-11-26T12:13:07.126Z,1408
2017-11-26T12:14:09.354Z,1244
2017-11-26T12:15:11.491Z,1312
2017-11-26T12:16:13.656Z,1336
2017-11-26T12:17:15.560Z,1280
2017-11-26T12:18:17.444Z,1188
2017-11-26T12:19:19.366Z,1104
2017-11-26T12:20:33.877Z,1144
2017-11-26T12:21:35.842Z,1288
2017-11-26T12:22:37.743Z,1648
2017-11-26T12:23:39.953Z,2116
2017-11-26T12:24:41.748Z,2352
2017-11-26T12:25:43.600Z,2572
2017-11-26T12:26:45.519Z,2864
2017-11-26T12:27:47.433Z,2948
2017-11-26T12:28:49.314Z,2984
2017-11-26T12:30:03.809Z,2992
2017-11-26T12:31:06.024Z,3056
2017-11-26T12:32:07.926Z,3128
2017-11-26T12:33:09.813Z,3168
2017-11-26T12:34:11.979Z,3272
2017-11-26T12:35:13.759Z,3384
2017-11-26T12:36:15.973Z,3428
2017-11-26T12:37:17.821Z,3472
2017-11-26T12:38:19.707Z,3516
2017-11-26T12:39:33.872Z,3568
2017-11-26T12:40:35.758Z,3656
2017-11-26T12:41:37.641Z,3828
2017-11-26T12:42:39.528Z,3996
2017-11-26T12:43:41.350Z,4148
2017-11-26T12:44:43.172Z,4260
2017-11-26T12:45:45.060Z,4336
2017-11-26T12:46:46.950Z,4396
2017-11-26T12:47:48.839Z,4520
2017-11-26T12:49:02.996Z,4684
2017-11-26T12:50:04.897Z,4676
2017-11-26T12:51:06.772Z,4492
2017-11-26T12:52:08.666Z,4292
2017-11-26T12:53:10.494Z,4284
2017-11-26T12:54:12.317Z,4256
2017-11-26T12:55:14.200Z,4016
2017-11-26T12:56:16.096Z,3876
2017-11-26T12:57:17.979Z,3800
2017-11-26T12:58:32.133Z,3776
2017-11-26T12:59:34.021Z,3548
2017-11-26T13:00:35.907Z,3232
2017-11-26T13:01:37.802Z,3036
2017-11-26T13:02:39.623Z,3000
2017-11-26T13:03:41.440Z,2996
2017-11-26T13:04:43.328Z,3020
2017-11-26T13:05:45.217Z,2988
2017-11-26T13:06:47.109Z,2980
2017-11-26T13:08:01.258Z,3088
2017-11-26T13:09:03.143Z,3196
2017-11-26T13:10:05.028Z,3336
2017-11-26T13:11:06.914Z,3520
2017-11-26T13:12:08.769Z,3684
2017-11-26T13:13:10.589Z,3700
2017-11-26T13:14:12.477Z,3528
2017-11-26T13:15:14.364Z,3328
2017-11-26T13:16:16.248Z,3136
2017-11-26T13:17:30.407Z,2960
2017-11-26T13:18:32.288Z,2972
2017-11-26T13:19:34.172Z,3044
2017-11-26T13:20:36.057Z,3032
2017-11-26T13:21:37.878Z,3032
2017-11-26T13:22:39.709Z,3044
2017-11-26T13:23:41.592Z,2972
2017-11-26T13:24:43.477Z,2896
2017-11-26T13:25:45.363Z,2876
2017-11-26T13:26:59.568Z,2940
2017-11-26T13:28:01.453Z,2980
2017-11-26T13:29:03.341Z,2968
2017-11-26T13:30:05.228Z,2952
2017-11-26T13:31:07.048Z,2936
2017-11-26T13:32:08.870Z,2928
2017-11-26T13:33:10.759Z,2908
2017-11-26T13:34:12.603Z,2876
2017-11-26T13:35:14.422Z,2936
2017-11-26T13:36:28.581Z,2980
2017-11-26T13:37:30.462Z,2816
2017-11-26T13:38:32.343Z,2564
2017-11-26T13:39:34.230Z,2408
2017-11-26T13:40:36.053Z,2376
2017-11-26T13:41:37.875Z,2456
2017-11-26T13:42:39.752Z,2588
2017-11-26T13:43:41.637Z,2736
2017-11-26T13:44:43.519Z,2836
2017-11-26T13:45:57.676Z,2812
2017-11-26T13:46:59.558Z,2740
2017-11-26T13:48:01.440Z,2612
2017-11-26T13:49:03.325Z,2484
2017-11-26T13:50:05.148Z,2404
2017-11-26T13:51:06.966Z,2284
2017-11-26T13:52:08.851Z,2168
2017-11-26T13:53:10.735Z,2064
2017-11-26T13:54:12.618Z,1988
2017-11-26T13:55:26.773Z,1968
2017-11-26T13:56:28.652Z,1920
2017-11-26T13:57:30.538Z,1832
2017-11-26T13:58:32.420Z,1732
2017-11-26T13:59:34.241Z,1640
2017-11-26T14:00:36.059Z,1560
2017-11-26T14:01:37.944Z,1488
2017-11-26T14:02:39.829Z,1400
2017-11-26T14:03:41.712Z,1320
2017-11-26T14:04:55.864Z,1292
2017-11-26T14:05:57.742Z,1284
2017-11-26T14:06:59.627Z,1280
2017-11-26T14:08:01.507Z,1268
2017-11-26T14:09:03.327Z,1232
2017-11-26T14:10:05.148Z,1172
2017-11-26T14:11:07.028Z,1096
2017-11-26T14:12:08.913Z,976
2017-11-26T14:13:10.796Z,868
2017-11-26T14:14:25.018Z,812
2017-11-26T14:15:26.875Z,844
2017-11-26T14:16:28.756Z,876
2017-11-26T14:17:30.639Z,884
2017-11-26T14:18:32.462Z,832
2017-11-26T14:19:34.277Z,772
2017-11-26T14:20:36.160Z,752
2017-11-26T14:21:38.047Z,736
2017-11-26T14:22:39.930Z,740
2017-11-26T14:23:54.079Z,716
2017-11-26T14:24:55.957Z,676
2017-11-26T14:25:57.848Z,624
2017-11-26T14:26:59.730Z,548
2017-11-26T14:28:01.550Z,484
2017-11-26T14:29:03.366Z,444
2017-11-26T14:30:05.248Z,428
2017-11-26T14:31:07.136Z,400
2017-11-26T14:32:09.016Z,368
2017-11-26T14:33:23.167Z,336
2017-11-26T14:34:25.046Z,316
2017-11-26T14:35:26.930Z,300
2017-11-26T14:36:28.816Z,280
2017-11-26T14:37:30.641Z,244
2017-11-26T14:38:32.464Z,232
2017-11-26T14:39:34.338Z,244
2017-11-26T14:40:36.222Z,248
2017-11-26T14:41:38.106Z,272